Time;durP1;ratioP1;P1;durP2;ratioP2;P2;SDS_P1;SDS_P2;PMS_P1;PMS_P2;Temp;Humidity;BMP_temperature;BMP_pressure;BME280_temperature;BME280_humidity;BME280_pressure;Samples;Min_cycle;Max_cycle;Signal;HPM_P1;HPM_P2
2022/09/03 00:01:36;;;;;;;0.90;0.90;;;16.20;90.10;;;;;;5016939;28;20462;-90
2022/09/03 00:04:10;;;;;;;1.47;1.43;;;16.10;90.10;;;;;;5017310;28;20465;-91
2022/09/03 00:06:41;;;;;;;1.53;1.50;;;16.10;90.20;;;;;;5016268;28;20922;-91
2022/09/03 00:09:10;;;;;;;1.00;0.90;;;16.00;90.30;;;;;;4999723;28;20448;-92
2022/09/03 00:11:49;;;;;;;1.90;1.80;;;16.00;90.30;;;;;;5000061;28;20444;-90
2022/09/03 00:14:21;;;;;;;1.40;1.33;;;16.00;90.60;;;;;;5000757;28;20789;-92
2022/09/03 00:17:04;;;;;;;0.90;0.90;;;15.90;90.50;;;;;;5015846;28;20481;-90
2022/09/03 00:19:35;;;;;;;1.20;1.10;;;15.90;90.50;;;;;;5016623;28;20447;-90
2022/09/03 00:22:12;;;;;;;1.10;1.10;;;15.90;90.70;;;;;;5015965;28;20474;-91
2022/09/03 00:24:41;;;;;;;1.30;1.20;;;15.80;90.80;;;;;;5016161;28;20995;-92
2022/09/03 00:27:14;;;;;;;1.17;1.13;;;15.80;90.90;;;;;;5015975;28;20852;-91
2022/09/03 00:29:49;;;;;;;1.20;1.10;;;15.70;91.10;;;;;;5016190;28;20463;-91
2022/09/03 00:32:28;;;;;;;1.30;1.20;;;15.70;91.10;;;;;;5012548;28;20463;-90
2022/09/03 00:34:59;;;;;;;1.20;1.10;;;15.70;91.40;;;;;;4999972;28;20416;-91
2022/09/03 00:37:27;;;;;;;1.30;1.20;;;15.60;91.30;;;;;;5015925;28;20929;-91
2022/09/03 00:39:54;;;;;;;1.50;1.40;;;15.60;91.60;;;;;;5014667;28;21021;-91
2022/09/03 00:42:38;;;;;;;1.27;1.17;;;15.60;91.60;;;;;;5015701;28;20412;-91
2022/09/03 00:45:42;;;;;;;1.57;1.47;;;15.60;91.70;;;;;;5029122;28;20420;-91
2022/09/03 00:48:22;;;;;;;1.03;1.00;;;15.50;92.00;;;;;;4933093;28;20467;-91
2022/09/03 00:51:28;;;;;;;1.37;1.27;;;15.50;92.00;;;;;;5012350;28;20445;-92
2022/09/03 00:54:11;;;;;;;1.63;1.43;;;15.50;92.10;;;;;;5008195;28;20447;-91
2022/09/03 00:56:52;;;;;;;1.23;1.13;;;15.50;92.20;;;;;;4999226;28;20478;-91
2022/09/03 00:59:30;;;;;;;1.10;1.00;;;15.40;92.40;;;;;;5015252;28;20416;-91
2022/09/03 01:02:13;;;;;;;1.47;1.33;;;15.40;92.50;;;;;;5014905;28;20432;-91
2022/09/03 01:05:05;;;;;;;1.83;1.27;;;15.40;92.50;;;;;;5012291;28;20413;-90
2022/09/03 01:07:45;;;;;;;1.23;1.13;;;15.40;92.40;;;;;;4998755;28;20992;-91
2022/09/03 01:10:22;;;;;;;1.10;1.00;;;15.40;92.50;;;;;;5012418;28;20477;-90
2022/09/03 01:13:06;;;;;;;1.13;1.10;;;15.30;92.80;;;;;;5028706;28;20413;-92
2022/09/03 01:15:53;;;;;;;1.20;1.10;;;15.30;92.70;;;;;;5015359;28;20415;-90
2022/09/03 01:18:52;;;;;;;1.10;1.00;;;15.30;92.80;;;;;;5014611;28;20506;-92
2022/09/03 01:21:27;;;;;;;1.53;1.20;;;15.30;92.80;;;;;;5010663;28;20470;-91
2022/09/03 01:24:38;;;;;;;5.03;1.60;;;15.20;93.00;;;;;;5068559;22;20483;-87
2022/09/03 01:27:19;;;;;;;1.93;1.47;;;15.20;93.00;;;;;;5000809;28;20512;-85
2022/09/03 01:30:02;;;;;;;1.87;1.17;;;15.20;93.10;;;;;;4995886;28;20467;-85
2022/09/03 01:33:01;;;;;;;1.60;1.57;;;15.20;93.40;;;;;;5013906;28;20486;-86
2022/09/03 01:35:44;;;;;;;1.60;1.30;;;15.20;93.70;;;;;;4996064;28;20444;-86
2022/09/03 01:38:42;;;;;;;1.33;1.27;;;15.20;93.60;;;;;;4996072;28;20515;-86
2022/09/03 01:44:38;;;;;;;1.00;0.90;;;15.20;93.40;;;;;;5001231;28;20516;-86
2022/09/03 01:47:31;;;;;;;1.73;1.63;;;15.20;93.40;;;;;;4994964;28;20463;-87
2022/09/03 01:50:00;;;;;;;2.50;1.40;;;15.20;93.80;;;;;;4997165;28;20518;-85
2022/09/03 01:52:39;;;;;;;1.60;1.50;;;15.20;93.60;;;;;;5005693;28;20420;-85
2022/09/03 01:55:22;;;;;;;1.57;1.53;;;15.10;93.60;;;;;;4986853;28;20958;-86
2022/09/03 01:58:01;;;;;;;1.90;1.40;;;15.10;93.60;;;;;;5011802;28;20503;-85
2022/09/03 02:00:29;;;;;;;1.20;1.10;;;15.10;93.70;;;;;;5011710;28;20431;-86
2022/09/03 02:02:55;;;;;;;1.33;1.30;;;15.10;93.70;;;;;;5011206;28;20511;-86
2022/09/03 02:05:26;;;;;;;1.80;1.70;;;15.10;94.00;;;;;;5012202;28;20532;-87
2022/09/03 02:08:06;;;;;;;1.20;1.10;;;15.10;94.20;;;;;;4993764;28;20162;-87
2022/09/03 02:10:38;;;;;;;2.60;1.27;;;15.10;94.00;;;;;;5007463;28;20429;-85
2022/09/03 02:13:08;;;;;;;4.50;2.17;;;15.10;94.30;;;;;;5012068;28;20412;-86
2022/09/03 02:15:37;;;;;;;1.50;1.20;;;15.10;94.20;;;;;;5012187;28;21008;-86
2022/09/03 02:18:07;;;;;;;2.20;1.20;;;15.10;94.10;;;;;;5011405;28;20459;-86
2022/09/03 02:20:33;;;;;;;1.93;1.83;;;15.00;94.30;;;;;;4995232;28;20926;-86
2022/09/03 02:22:59;;;;;;;1.67;1.40;;;15.00;94.40;;;;;;5011640;28;20428;-86
2022/09/03 02:25:32;;;;;;;1.10;1.10;;;15.00;94.30;;;;;;5011629;28;20232;-86
2022/09/03 02:27:59;;;;;;;1.27;1.20;;;15.00;94.30;;;;;;5011243;28;20432;-86
2022/09/03 02:30:25;;;;;;;5.03;1.50;;;14.90;94.30;;;;;;4995450;28;20540;-86
2022/09/03 02:32:50;;;;;;;1.20;1.10;;;14.90;94.40;;;;;;4994434;28;20420;-86
2022/09/03 02:35:16;;;;;;;1.50;1.40;;;14.80;94.40;;;;;;4992274;28;20305;-86
2022/09/03 02:37:42;;;;;;;3.67;1.67;;;14.80;94.70;;;;;;5009501;28;20177;-85
2022/09/03 02:40:09;;;;;;;1.10;1.00;;;14.80;94.80;;;;;;4994677;28;20428;-86
2022/09/03 02:42:35;;;;;;;1.93;1.47;;;14.80;94.70;;;;;;5011061;28;20193;-87
2022/09/03 02:45:15;;;;;;;1.73;1.67;;;14.80;94.80;;;;;;5011125;28;20482;-86
2022/09/03 02:47:43;;;;;;;1.90;1.80;;;14.80;94.80;;;;;;5011543;28;20424;-87
2022/09/03 02:50:09;;;;;;;1.57;1.20;;;14.70;95.00;;;;;;5011146;28;20448;-86
2022/09/03 02:52:35;;;;;;;1.77;1.57;;;14.70;95.00;;;;;;4995125;28;20957;-88
2022/09/03 02:55:00;;;;;;;1.10;1.00;;;14.60;95.20;;;;;;4994632;28;20201;-87
2022/09/03 02:57:27;;;;;;;1.77;1.37;;;14.60;95.20;;;;;;5011070;28;20172;-86
2022/09/03 02:59:53;;;;;;;1.60;1.50;;;14.60;95.20;;;;;;4994468;28;20647;-86
2022/09/03 03:02:18;;;;;;;2.17;1.47;;;14.60;95.50;;;;;;5011490;28;20431;-86
2022/09/03 03:04:44;;;;;;;2.67;1.73;;;14.60;95.60;;;;;;5010590;28;20284;-84
2022/09/03 03:07:09;;;;;;;2.00;1.47;;;14.50;95.70;;;;;;5010873;28;20188;-86
2022/09/03 03:09:35;;;;;;;1.60;1.33;;;14.50;95.80;;;;;;5011086;28;20212;-86
2022/09/03 03:12:01;;;;;;;1.00;1.00;;;14.50;95.90;;;;;;5004466;28;20173;-86
2022/09/03 03:14:26;;;;;;;1.70;1.60;;;14.40;95.90;;;;;;5004747;28;20630;-87
2022/09/03 03:16:51;;;;;;;1.20;1.20;;;14.40;96.00;;;;;;4991132;28;20166;-85
2022/09/03 03:19:17;;;;;;;1.40;1.30;;;14.30;96.00;;;;;;4988093;28;20268;-86
2022/09/03 03:21:43;;;;;;;1.43;1.03;;;14.30;96.20;;;;;;4998066;28;20184;-87
2022/09/03 03:24:08;;;;;;;1.37;1.33;;;14.30;96.20;;;;;;4993843;28;20229;-86
2022/09/03 03:26:34;;;;;;;15.43;2.70;;;14.20;96.30;;;;;;5011293;28;21009;-88
2022/09/03 03:29:04;;;;;;;2.63;2.17;;;14.20;96.40;;;;;;4998148;28;20213;-85
2022/09/03 03:31:30;;;;;;;1.33;1.23;;;14.20;96.50;;;;;;5012661;28;20593;-87
2022/09/03 03:34:02;;;;;;;1.30;1.20;;;14.10;96.50;;;;;;5010758;28;20447;-86
2022/09/03 03:36:30;;;;;;;1.40;1.30;;;14.10;96.50;;;;;;4994418;28;20420;-86
2022/09/03 03:38:57;;;;;;;1.57;1.40;;;14.10;96.60;;;;;;5010022;28;20499;-86
2022/09/03 03:41:30;;;;;;;5.00;1.57;;;14.10;96.80;;;;;;5012491;28;20412;-85
2022/09/03 03:43:58;;;;;;;1.40;1.30;;;14.10;96.90;;;;;;4994390;28;20436;-86
2022/09/03 03:46:24;;;;;;;1.20;1.10;;;14.00;96.90;;;;;;5010946;28;20474;-85
2022/09/03 03:48:51;;;;;;;1.50;1.40;;;14.00;97.00;;;;;;5010529;28;20459;-85
2022/09/03 03:51:17;;;;;;;1.60;1.50;;;14.00;97.00;;;;;;5012271;28;20455;-86
2022/09/03 03:53:44;;;;;;;1.50;1.40;;;14.00;97.00;;;;;;5009523;28;20416;-86
2022/09/03 03:56:12;;;;;;;1.83;1.10;;;13.90;97.10;;;;;;4992134;28;20468;-86
2022/09/03 03:58:41;;;;;;;1.30;1.20;;;13.90;97.10;;;;;;5007069;28;21046;-86
2022/09/03 04:01:09;;;;;;;1.30;1.23;;;13.90;97.30;;;;;;4994622;28;20451;-86
2022/09/03 04:03:36;;;;;;;3.37;1.47;;;13.80;97.30;;;;;;5010519;28;20420;-86
2022/09/03 04:06:03;;;;;;;1.73;1.63;;;13.80;97.30;;;;;;4994212;28;20548;-86
2022/09/03 04:08:29;;;;;;;1.33;1.27;;;13.80;97.30;;;;;;5010119;28;20448;-86
2022/09/03 04:11:00;;;;;;;1.60;1.50;;;13.80;97.30;;;;;;5010593;28;20432;-85
2022/09/03 04:13:33;;;;;;;1.83;1.33;;;13.80;97.30;;;;;;5006607;28;20439;-85
2022/09/03 04:16:25;;;;;;;1.40;1.30;;;13.80;97.30;;;;;;5006766;28;20494;-85
2022/09/03 04:18:52;;;;;;;1.43;1.33;;;13.70;97.30;;;;;;5003580;28;20423;-86
2022/09/03 04:21:21;;;;;;;1.47;1.40;;;13.80;97.30;;;;;;5013797;28;20930;-86
2022/09/03 04:23:48;;;;;;;1.93;1.80;;;13.70;97.30;;;;;;5013694;28;20974;-86
2022/09/03 04:26:18;;;;;;;1.37;1.30;;;13.70;97.30;;;;;;5014035;28;20435;-87
2022/09/03 04:28:44;;;;;;;3.83;1.93;;;13.70;97.30;;;;;;4994216;28;21164;-85
2022/09/03 04:31:12;;;;;;;1.10;1.00;;;13.70;97.30;;;;;;4994510;28;20434;-86
2022/09/03 04:33:38;;;;;;;1.40;1.30;;;13.70;97.30;;;;;;4997626;28;20790;-86
2022/09/03 04:36:07;;;;;;;1.67;1.63;;;13.60;97.30;;;;;;5013557;28;20448;-87
2022/09/03 04:38:34;;;;;;;1.40;1.30;;;13.60;97.30;;;;;;5013789;28;20416;-85
2022/09/03 04:40:59;;;;;;;1.33;1.27;;;13.60;97.30;;;;;;5013319;28;20424;-86
2022/09/03 04:43:26;;;;;;;1.37;1.27;;;13.60;97.30;;;;;;5014878;28;20409;-85
2022/09/03 04:45:56;;;;;;;2.60;2.27;;;13.60;97.30;;;;;;5008938;28;20181;-85
2022/09/03 04:48:22;;;;;;;1.10;1.10;;;13.50;97.30;;;;;;5006275;28;20462;-85
2022/09/03 04:50:47;;;;;;;1.30;1.20;;;13.50;97.30;;;;;;5013121;28;20413;-86
2022/09/03 04:53:13;;;;;;;2.40;2.20;;;13.50;97.30;;;;;;5014329;28;20249;-86
2022/09/03 04:55:38;;;;;;;1.50;1.40;;;13.50;97.30;;;;;;4995191;28;20207;-86
2022/09/03 04:58:06;;;;;;;1.93;1.57;;;13.50;97.30;;;;;;5006216;28;20243;-85
2022/09/03 05:00:32;;;;;;;1.20;1.10;;;13.50;97.30;;;;;;5013313;28;20170;-86
2022/09/03 05:02:59;;;;;;;1.57;1.47;;;13.50;97.30;;;;;;5011062;28;20463;-85
2022/09/03 05:05:25;;;;;;;1.37;1.30;;;13.50;97.30;;;;;;5008465;28;20375;-84
2022/09/03 05:07:50;;;;;;;1.27;1.17;;;13.50;97.30;;;;;;5011377;28;20482;-86
2022/09/03 05:10:19;;;;;;;1.23;1.13;;;13.50;97.30;;;;;;5012486;28;20187;-86
2022/09/03 05:12:46;;;;;;;2.00;1.57;;;13.50;97.30;;;;;;5011849;28;20667;-87
2022/09/03 05:15:13;;;;;;;1.63;1.30;;;13.50;97.30;;;;;;5006929;28;20444;-87
2022/09/03 05:17:38;;;;;;;1.87;1.77;;;13.50;97.30;;;;;;5013086;28;20467;-86
2022/09/03 05:20:08;;;;;;;1.10;1.10;;;13.50;97.30;;;;;;5011566;28;20478;-86
2022/09/03 05:22:34;;;;;;;1.40;1.30;;;13.50;97.30;;;;;;5010468;28;20186;-88
2022/09/03 05:24:59;;;;;;;1.90;1.43;;;13.50;97.30;;;;;;5009910;28;20468;-85
2022/09/03 05:27:25;;;;;;;4.20;1.83;;;13.50;97.30;;;;;;5011079;28;20917;-88
2022/09/03 05:29:50;;;;;;;1.40;1.30;;;13.60;97.30;;;;;;5007917;28;20295;-85
2022/09/03 05:32:16;;;;;;;2.03;1.57;;;13.60;97.30;;;;;;5008142;28;20186;-86
2022/09/03 05:34:42;;;;;;;2.87;2.10;;;13.60;97.30;;;;;;5007044;28;20205;-86
2022/09/03 05:37:08;;;;;;;2.80;1.67;;;13.60;97.30;;;;;;5005926;28;20181;-87
2022/09/03 05:39:34;;;;;;;1.30;1.20;;;13.60;97.30;;;;;;4995722;28;20421;-86
2022/09/03 05:41:59;;;;;;;2.03;1.80;;;13.70;97.30;;;;;;5010516;28;20468;-85
2022/09/03 05:44:25;;;;;;;1.50;1.40;;;13.70;97.30;;;;;;4990503;28;20598;-86
2022/09/03 05:46:50;;;;;;;1.40;1.30;;;13.70;97.30;;;;;;5007468;28;20185;-85
2022/09/03 05:49:16;;;;;;;2.50;1.47;;;13.70;97.30;;;;;;5009497;28;20683;-86
2022/09/03 05:51:43;;;;;;;1.27;1.20;;;13.80;97.30;;;;;;5013185;28;20174;-85
2022/09/03 05:54:09;;;;;;;2.10;1.97;;;13.80;97.30;;;;;;5011308;28;20280;-87
2022/09/03 05:56:38;;;;;;;2.03;1.63;;;13.80;97.30;;;;;;4992365;28;20791;-86
2022/09/03 05:59:07;;;;;;;3.40;2.10;;;13.90;97.30;;;;;;5008824;28;20875;-86
2022/09/03 06:01:35;;;;;;;1.40;1.30;;;13.90;97.30;;;;;;5009515;28;20440;-86
2022/09/03 06:04:04;;;;;;;2.07;1.80;;;13.90;97.30;;;;;;4990672;28;20510;-85
2022/09/03 06:06:33;;;;;;;1.93;1.70;;;14.00;97.30;;;;;;5010914;28;20940;-85
2022/09/03 06:09:03;;;;;;;1.50;1.40;;;14.00;97.30;;;;;;5008142;28;20452;-86
2022/09/03 06:11:31;;;;;;;1.83;1.73;;;14.00;97.30;;;;;;5011003;28;20428;-86
2022/09/03 06:14:01;;;;;;;1.40;1.30;;;14.10;97.30;;;;;;5008208;28;20443;-85
2022/09/03 06:16:28;;;;;;;1.63;1.53;;;14.10;97.30;;;;;;5007583;28;20514;-84
2022/09/03 06:18:55;;;;;;;1.60;1.40;;;14.20;97.30;;;;;;5007555;28;20945;-86
2022/09/03 06:21:20;;;;;;;2.00;1.70;;;14.20;97.30;;;;;;5009482;28;20463;-86
2022/09/03 06:23:50;;;;;;;1.60;1.43;;;14.20;97.30;;;;;;5007243;28;20534;-85
2022/09/03 06:26:16;;;;;;;2.10;1.43;;;14.20;97.30;;;;;;5011041;28;20205;-86
2022/09/03 06:28:43;;;;;;;1.90;1.50;;;14.20;97.30;;;;;;5009421;28;20452;-85
2022/09/03 06:31:10;;;;;;;6.90;1.50;;;14.20;97.30;;;;;;5010606;28;20421;-86
2022/09/03 06:33:37;;;;;;;1.37;1.30;;;14.20;97.30;;;;;;5008378;28;20581;-86
2022/09/03 06:36:08;;;;;;;2.27;2.10;;;14.20;97.30;;;;;;5000079;28;20412;-85
2022/09/03 06:38:36;;;;;;;1.57;1.47;;;14.30;97.30;;;;;;5007217;28;20807;-88
2022/09/03 06:41:09;;;;;;;2.33;2.13;;;14.30;97.30;;;;;;4988790;28;20416;-86
2022/09/03 06:43:37;;;;;;;3.10;1.47;;;14.30;97.30;;;;;;5010581;28;20498;-86
2022/09/03 06:46:05;;;;;;;3.00;2.23;;;14.40;97.30;;;;;;5006517;28;20462;-85
2022/09/03 06:48:33;;;;;;;1.57;1.47;;;14.40;97.30;;;;;;5007553;28;20484;-85
2022/09/03 06:51:03;;;;;;;1.50;1.40;;;14.40;97.30;;;;;;4992830;28;20428;-85
2022/09/03 06:53:33;;;;;;;1.33;1.23;;;14.50;97.30;;;;;;5008263;28;20514;-86
2022/09/03 06:56:17;;;;;;;1.70;1.60;;;14.50;97.30;;;;;;5009455;28;20421;-85
2022/09/03 06:58:47;;;;;;;1.50;1.40;;;14.60;97.30;;;;;;5003724;28;20412;-86
2022/09/03 07:01:18;;;;;;;1.60;1.50;;;14.70;97.30;;;;;;5002571;28;20424;-86
2022/09/03 07:03:47;;;;;;;1.40;1.30;;;14.70;97.30;;;;;;5009923;28;21024;-86
2022/09/03 07:06:15;;;;;;;2.13;1.53;;;14.80;97.30;;;;;;5001132;28;20453;-85
2022/09/03 07:08:42;;;;;;;1.80;1.70;;;14.80;97.30;;;;;;5003031;28;20514;-85
2022/09/03 07:11:10;;;;;;;1.50;1.40;;;14.90;97.30;;;;;;5003536;28;20423;-86
2022/09/03 07:13:39;;;;;;;1.57;1.50;;;14.90;97.30;;;;;;4981656;28;20988;-87
2022/09/03 07:16:07;;;;;;;1.30;1.20;;;15.00;97.30;;;;;;4993668;28;20537;-86
2022/09/03 07:18:33;;;;;;;1.27;1.20;;;15.10;97.30;;;;;;4993825;28;20423;-86
2022/09/03 07:21:07;;;;;;;1.77;1.60;;;15.20;97.30;;;;;;4993698;28;20474;-86
2022/09/03 07:23:34;;;;;;;1.70;1.50;;;15.30;96.80;;;;;;5010586;28;20634;-86
2022/09/03 07:28:55;;;;;;;1.77;1.10;;;15.50;96.50;;;;;;5011805;28;20484;-95
2022/09/03 07:31:27;;;;;;;2.93;1.73;;;15.50;96.30;;;;;;5011449;28;20441;-94
2022/09/03 07:33:56;;;;;;;4.70;1.50;;;15.60;96.50;;;;;;5023070;28;20421;-89
2022/09/03 07:36:24;;;;;;;2.30;1.67;;;15.80;96.70;;;;;;5004759;28;20417;-92
2022/09/03 07:38:49;;;;;;;2.20;1.90;;;15.90;96.40;;;;;;4985840;28;20433;-92
2022/09/03 07:41:15;;;;;;;1.50;1.40;;;16.00;96.00;;;;;;5015965;28;20799;-91
2022/09/03 07:43:44;;;;;;;1.30;1.20;;;16.10;95.30;;;;;;5014743;28;20609;-92
2022/09/03 07:46:12;;;;;;;2.27;1.67;;;16.20;94.90;;;;;;4996622;28;20200;-93
2022/09/03 07:48:42;;;;;;;1.47;1.30;;;16.30;95.30;;;;;;4997828;28;20464;-94
2022/09/03 07:51:13;;;;;;;1.13;1.00;;;16.40;95.10;;;;;;5023143;28;20734;-94
2022/09/03 07:53:47;;;;;;;1.97;1.20;;;16.50;94.90;;;;;;5040135;28;20431;-95
2022/09/03 07:56:14;;;;;;;1.13;1.03;;;16.60;94.70;;;;;;5033861;28;20423;-95
2022/09/03 07:58:47;;;;;;;1.10;1.00;;;16.70;94.50;;;;;;5022570;28;20436;-95
2022/09/03 08:01:17;;;;;;;1.00;0.90;;;16.80;94.20;;;;;;5009419;28;20431;-92
2022/09/03 08:03:45;;;;;;;1.57;1.30;;;16.90;94.10;;;;;;5018673;28;20408;-92
2022/09/03 08:06:15;;;;;;;1.00;0.93;;;17.00;93.70;;;;;;5000761;28;20460;-91
2022/09/03 08:08:46;;;;;;;1.40;1.30;;;17.00;93.70;;;;;;5000576;28;20462;-92
2022/09/03 08:11:16;;;;;;;1.60;1.50;;;17.10;93.20;;;;;;5001906;28;20796;-91
2022/09/03 08:13:47;;;;;;;1.10;1.00;;;17.20;93.10;;;;;;5012995;28;20511;-92
2022/09/03 08:16:24;;;;;;;1.33;1.23;;;17.30;92.60;;;;;;5014350;28;20432;-92
2022/09/03 08:18:53;;;;;;;1.30;1.20;;;17.30;91.60;;;;;;5000563;28;20512;-94
2022/09/03 08:21:27;;;;;;;1.60;1.50;;;17.40;91.50;;;;;;5009578;28;20764;-92
2022/09/03 08:24:14;;;;;;;1.20;1.10;;;17.40;91.60;;;;;;5004597;28;20431;-93
2022/09/03 08:27:07;;;;;;;2.50;1.83;;;17.40;91.60;;;;;;5009632;28;20445;-91
2022/09/03 08:29:35;;;;;;;1.50;1.10;;;17.50;91.10;;;;;;4998872;28;20451;-91
2022/09/03 08:32:04;;;;;;;1.27;1.10;;;17.60;91.60;;;;;;5006447;28;20420;-91
2022/09/03 08:34:37;;;;;;;1.30;1.20;;;17.70;91.40;;;;;;4998949;28;20420;-90
2022/09/03 08:37:09;;;;;;;1.23;1.13;;;17.80;90.80;;;;;;5014237;28;20428;-92
2022/09/03 08:39:34;;;;;;;1.40;1.33;;;18.00;91.10;;;;;;5015160;28;20415;-92
2022/09/03 08:42:13;;;;;;;1.67;1.57;;;18.10;90.40;;;;;;5005502;28;20467;-91
2022/09/03 08:44:47;;;;;;;2.80;1.53;;;18.20;90.30;;;;;;5001947;28;20207;-90
2022/09/03 08:47:25;;;;;;;1.10;1.00;;;18.30;88.90;;;;;;5012314;28;20439;-92
2022/09/03 08:50:03;;;;;;;0.90;0.90;;;18.30;89.60;;;;;;5000355;28;21360;-91
2022/09/03 08:52:56;;;;;;;1.30;1.20;;;18.40;87.70;;;;;;5007839;28;20436;-90
2022/09/03 08:55:46;;;;;;;1.33;1.23;;;18.40;87.40;;;;;;5018517;28;20519;-92
2022/09/03 08:58:37;;;;;;;1.57;1.30;;;18.50;86.80;;;;;;5014661;28;20530;-89
2022/09/03 09:01:25;;;;;;;1.20;1.10;;;18.50;87.20;;;;;;4993162;28;20442;-91
2022/09/03 09:04:33;;;;;;;2.47;1.50;;;18.60;87.70;;;;;;5025913;28;20514;-91
2022/09/03 09:10:56;;;;;;;2.70;1.27;;;18.90;87.00;;;;;;5005494;28;20492;-91
2022/09/03 09:13:43;;;;;;;1.20;1.10;;;19.00;85.40;;;;;;4960273;28;20442;-91
2022/09/03 09:16:39;;;;;;;;;;;;;;;;;;;;;
2022/09/03 09:19:35;;;;;;;1.97;1.03;;;19.20;85.50;;;;;;5032363;28;20506;-91
2022/09/03 09:22:14;;;;;;;2.33;1.30;;;19.20;85.30;;;;;;5003582;28;20527;-93
2022/09/03 09:25:06;;;;;;;1.37;1.30;;;19.30;84.90;;;;;;4992744;28;20445;-92
2022/09/03 09:27:34;;;;;;;3.10;1.33;;;19.40;84.80;;;;;;5012576;28;20478;-92
2022/09/03 09:30:17;;;;;;;1.43;1.33;;;19.50;84.60;;;;;;5019833;28;20450;-92
2022/09/03 09:32:46;;;;;;;1.10;1.00;;;19.60;84.20;;;;;;4980779;28;20417;-91
2022/09/03 09:35:17;;;;;;;1.20;1.13;;;19.70;84.70;;;;;;4999091;28;20463;-92
2022/09/03 09:37:53;;;;;;;4.70;2.27;;;19.80;84.70;;;;;;5000690;28;20435;-91
2022/09/03 09:40:44;;;;;;;1.97;1.20;;;19.80;84.20;;;;;;5000940;28;20419;-92
2022/09/03 09:43:24;;;;;;;3.20;1.40;;;19.90;81.80;;;;;;5001774;28;20787;-91
2022/09/03 09:46:13;;;;;;;1.03;1.00;;;19.90;82.00;;;;;;5002398;28;20428;-91
2022/09/03 09:49:17;;;;;;;5.10;2.53;;;19.90;81.30;;;;;;5019693;28;20451;-90
2022/09/03 09:51:45;;;;;;;1.60;1.50;;;20.00;81.90;;;;;;5037125;28;20415;-91
2022/09/03 09:54:26;;;;;;;1.77;1.67;;;20.00;81.70;;;;;;5006493;28;20471;-91
2022/09/03 09:57:17;;;;;;;3.23;1.67;;;20.10;82.10;;;;;;5002994;28;20559;-90
2022/09/03 09:59:45;;;;;;;1.30;1.23;;;20.20;82.30;;;;;;5005433;28;20427;-90
2022/09/03 10:02:35;;;;;;;3.73;3.50;;;20.30;81.90;;;;;;5006178;28;20464;-91
2022/09/03 10:05:15;;;;;;;1.67;1.50;;;20.40;81.60;;;;;;4999846;28;20428;-89
2022/09/03 10:07:58;;;;;;;1.40;1.30;;;20.50;80.80;;;;;;5002909;28;20443;-91
2022/09/03 10:10:25;;;;;;;1.13;1.03;;;20.50;80.00;;;;;;4995153;28;20572;-91
2022/09/03 10:13:33;;;;;;;2.70;1.63;;;20.50;79.40;;;;;;5014156;28;20474;-94
2022/09/03 10:16:14;;;;;;;1.30;1.30;;;20.50;79.20;;;;;;5006133;28;20424;-91
2022/09/03 10:19:15;;;;;;;2.17;1.30;;;20.50;78.60;;;;;;5002050;28;20992;-89
2022/09/03 10:22:26;;;;;;;1.30;1.27;;;20.50;79.50;;;;;;5016104;28;20434;-92
2022/09/03 10:25:27;;;;;;;2.20;1.10;;;20.60;80.20;;;;;;5006590;28;20424;-92
2022/09/03 10:27:59;;;;;;;2.63;1.70;;;20.70;80.70;;;;;;5018778;28;20510;-90
2022/09/03 10:30:45;;;;;;;1.50;1.40;;;20.90;81.00;;;;;;4998817;28;20468;-90
2022/09/03 10:33:25;;;;;;;3.47;1.47;;;21.00;80.60;;;;;;4999662;28;20427;-91
2022/09/03 10:36:15;;;;;;;1.30;1.20;;;21.10;78.80;;;;;;5001634;28;20440;-91
2022/09/03 10:39:03;;;;;;;4.07;1.50;;;21.10;78.70;;;;;;5013616;28;20431;-89
2022/09/03 10:41:34;;;;;;;1.33;1.23;;;21.10;79.40;;;;;;5005757;28;20427;-89
2022/09/03 10:44:23;;;;;;;2.03;1.67;;;21.20;79.20;;;;;;5010987;28;20415;-89
2022/09/03 10:47:28;;;;;;;1.20;1.10;;;21.30;79.50;;;;;;5011876;28;20452;-90
2022/09/03 10:50:16;;;;;;;1.47;1.43;;;21.40;80.20;;;;;;4933192;28;20472;-91
2022/09/03 10:53:26;;;;;;;1.57;1.47;;;21.60;80.00;;;;;;4991581;28;20458;-89
2022/09/03 10:56:07;;;;;;;4.10;2.20;;;21.70;79.90;;;;;;5010366;28;20463;-89
2022/09/03 10:59:04;;;;;;;1.13;1.10;;;21.70;78.50;;;;;;4993616;28;20885;-89
2022/09/03 11:02:04;;;;;;;2.80;1.77;;;21.80;79.10;;;;;;4997686;28;20420;-91
2022/09/03 11:04:45;;;;;;;1.53;1.10;;;22.00;80.00;;;;;;4956460;28;20439;-89
2022/09/03 11:07:25;;;;;;;1.40;1.13;;;22.10;78.20;;;;;;5007041;28;20436;-89
2022/09/03 11:10:26;;;;;;;1.17;1.10;;;22.10;77.80;;;;;;4995315;28;20937;-90
2022/09/03 11:16:27;;;;;;;2.23;1.37;;;22.10;78.70;;;;;;5001099;28;20412;-88
2022/09/03 11:19:04;;;;;;;3.90;1.23;;;22.20;77.50;;;;;;4998238;28;20429;-88
2022/09/03 11:21:37;;;;;;;1.30;1.20;;;22.20;77.20;;;;;;5017920;28;20419;-89
2022/09/03 11:24:25;;;;;;;1.30;1.00;;;22.30;77.40;;;;;;4999221;28;20460;-88
2022/09/03 11:27:27;;;;;;;2.90;1.60;;;22.40;78.10;;;;;;5008007;28;20834;-89
2022/09/03 11:30:24;;;;;;;1.10;1.00;;;22.50;77.40;;;;;;5001586;28;20526;-88
2022/09/03 11:33:15;;;;;;;1.10;1.03;;;22.60;76.90;;;;;;5031525;28;20419;-90
2022/09/03 11:35:44;;;;;;;1.20;1.10;;;22.70;77.50;;;;;;5018617;28;20954;-91
2022/09/03 11:38:17;;;;;;;1.43;1.33;;;22.80;77.60;;;;;;5002017;28;20447;-90
2022/09/03 11:41:07;;;;;;;6.30;1.47;;;22.80;76.10;;;;;;5015613;28;20956;-90
2022/09/03 11:43:33;;;;;;;2.93;1.10;;;22.80;76.10;;;;;;5011256;28;20467;-92
2022/09/03 11:46:24;;;;;;;2.10;1.27;;;22.80;76.80;;;;;;4998531;28;20479;-91
2022/09/03 11:49:14;;;;;;;2.63;1.27;;;22.90;75.90;;;;;;5000124;28;20505;-90
2022/09/03 11:52:08;;;;;;;1.23;1.13;;;23.00;75.60;;;;;;5020880;28;20443;-92
2022/09/03 11:54:43;;;;;;;1.80;1.40;;;23.00;75.40;;;;;;5008508;28;20938;-90
2022/09/03 11:57:13;;;;;;;1.37;1.33;;;23.10;75.50;;;;;;4999637;28;20440;-91
2022/09/03 11:59:46;;;;;;;1.60;1.07;;;23.20;74.90;;;;;;5016345;28;20413;-91
2022/09/03 12:02:34;;;;;;;2.40;1.20;;;23.20;73.70;;;;;;5016225;28;20400;-91
2022/09/03 12:05:56;;;;;;;2.03;1.23;;;23.20;74.70;;;;;;4995316;28;20427;-90
2022/09/03 12:08:24;;;;;;;1.00;0.90;;;23.30;75.10;;;;;;4981774;28;20603;-90
2022/09/03 12:11:27;;;;;;;2.97;1.73;;;23.50;75.60;;;;;;5012002;28;20427;-91
2022/09/03 12:14:27;;;;;;;1.33;1.17;;;23.70;75.30;;;;;;4999003;28;20423;-91
2022/09/03 12:17:13;;;;;;;1.87;1.17;;;23.80;75.50;;;;;;4998554;28;20432;-90
2022/09/03 12:19:55;;;;;;;1.20;1.10;;;24.00;74.50;;;;;;4997654;28;20435;-91
2022/09/03 12:22:37;;;;;;;1.07;1.00;;;24.10;73.60;;;;;;4998837;28;20408;-91
2022/09/03 12:25:15;;;;;;;2.13;1.23;;;24.20;74.20;;;;;;5010090;28;20416;-91
2022/09/03 12:27:48;;;;;;;1.00;1.00;;;24.20;72.20;;;;;;5015202;28;20472;-91
2022/09/03 12:30:33;;;;;;;1.60;1.50;;;24.20;72.40;;;;;;5011602;28;20475;-91
2022/09/03 12:33:06;;;;;;;1.10;0.90;;;24.20;73.50;;;;;;4983760;28;20416;-92
2022/09/03 12:35:36;;;;;;;1.50;1.40;;;24.40;74.30;;;;;;5001609;28;20532;-91
2022/09/03 12:38:05;;;;;;;1.07;1.07;;;24.50;74.30;;;;;;5000105;28;20433;-92
2022/09/03 12:41:17;;;;;;;0.90;0.80;;;24.60;72.20;;;;;;5020132;28;20435;-93
2022/09/03 12:44:04;;;;;;;1.77;1.67;;;24.60;72.80;;;;;;5034325;28;20519;-90
2022/09/03 12:46:38;;;;;;;1.03;0.97;;;24.80;72.80;;;;;;5034689;28;20606;-92
2022/09/03 12:49:26;;;;;;;1.53;0.90;;;24.80;72.30;;;;;;5019685;28;20950;-91
2022/09/03 12:52:04;;;;;;;1.00;0.90;;;24.80;70.00;;;;;;5001512;28;20412;-90
2022/09/03 12:55:04;;;;;;;0.90;0.90;;;24.80;71.50;;;;;;5017602;28;20998;-91
2022/09/03 12:57:44;;;;;;;1.90;1.20;;;24.80;72.00;;;;;;5003308;28;21064;-91
2022/09/03 13:00:44;;;;;;;3.93;1.30;;;24.80;71.60;;;;;;4998221;28;20549;-91
2022/09/03 13:03:24;;;;;;;1.10;1.03;;;24.90;72.10;;;;;;4996891;28;20467;-91
2022/09/03 13:06:17;;;;;;;1.13;1.03;;;25.10;72.90;;;;;;5001974;28;20440;-90
2022/09/03 13:09:04;;;;;;;1.00;0.90;;;25.10;70.30;;;;;;4985690;28;20985;-91
2022/09/03 13:11:36;;;;;;;1.00;0.90;;;25.20;71.50;;;;;;4981227;28;20958;-90
2022/09/03 13:14:17;;;;;;;1.93;1.33;;;25.30;71.80;;;;;;5001043;28;20409;-90
2022/09/03 13:16:43;;;;;;;1.33;1.03;;;25.40;72.00;;;;;;4992047;28;20440;-91
2022/09/03 13:19:28;;;;;;;1.47;1.37;;;25.50;70.80;;;;;;5017508;28;20412;-91
2022/09/03 13:22:17;;;;;;;1.03;0.93;;;25.60;71.50;;;;;;5008833;28;20180;-91
2022/09/03 13:24:58;;;;;;;1.27;1.17;;;25.80;72.60;;;;;;4997976;28;20437;-91
2022/09/03 13:27:45;;;;;;;1.73;1.53;;;25.90;71.50;;;;;;4996642;28;20496;-90
2022/09/03 13:30:17;;;;;;;1.10;1.00;;;26.00;71.70;;;;;;5049561;23;20655;-94
2022/09/03 13:33:04;;;;;;;1.37;1.10;;;26.10;70.70;;;;;;5028902;28;20423;-94
2022/09/03 13:35:38;;;;;;;1.27;1.10;;;26.20;71.40;;;;;;5016320;28;20439;-94
2022/09/03 13:38:30;;;;;;;1.13;1.07;;;26.20;69.20;;;;;;5035395;28;20423;-93
2022/09/03 13:41:06;;;;;;;1.20;1.10;;;26.10;69.60;;;;;;5031673;28;20442;-93
2022/09/03 13:43:47;;;;;;;1.20;1.10;;;26.10;70.00;;;;;;4988229;28;20417;-94
2022/09/03 13:46:24;;;;;;;1.20;1.10;;;26.00;69.70;;;;;;5004158;28;20443;-94